sensor_id;sensor_type;location;lat;lon;timestamp;P1;durP1;ratioP1;P2;durP2;ratioP2
18669;SDS011;9464;44.918;9.670;2022-09-09T00:00:31;1.75;;;0.77;;
18669;SDS011;9464;44.918;9.670;2022-09-09T00:03:01;2.00;;;1.08;;
18669;SDS011;9464;44.918;9.670;2022-09-09T00:05:32;2.70;;;1.02;;
18669;SDS011;9464;44.918;9.670;2022-09-09T00:08:02;2.15;;;1.20;;
18669;SDS011;9464;44.918;9.670;2022-09-09T00:10:32;2.30;;;0.85;;
18669;SDS011;9464;44.918;9.670;2022-09-09T00:13:02;1.60;;;1.30;;
18669;SDS011;9464;44.918;9.670;2022-09-09T00:15:36;1.98;;;1.30;;
18669;SDS011;9464;44.918;9.670;2022-09-09T00:18:08;1.20;;;1.10;;
18669;SDS011;9464;44.918;9.670;2022-09-09T00:20:42;2.97;;;1.45;;
18669;SDS011;9464;44.918;9.670;2022-09-09T00:23:14;2.10;;;1.42;;
18669;SDS011;9464;44.918;9.670;2022-09-09T00:25:46;4.13;;;2.10;;
18669;SDS011;9464;44.918;9.670;2022-09-09T00:28:18;3.27;;;2.00;;
18669;SDS011;9464;44.918;9.670;2022-09-09T00:30:48;2.63;;;1.70;;
18669;SDS011;9464;44.918;9.670;2022-09-09T00:33:18;4.78;;;1.85;;
18669;SDS011;9464;44.918;9.670;2022-09-09T00:35:49;5.70;;;2.15;;
18669;SDS011;9464;44.918;9.670;2022-09-09T00:38:19;2.33;;;1.70;;
18669;SDS011;9464;44.918;9.670;2022-09-09T00:40:50;3.20;;;1.70;;
18669;SDS011;9464;44.918;9.670;2022-09-09T00:43:25;2.30;;;1.45;;
18669;SDS011;9464;44.918;9.670;2022-09-09T00:48:40;1.83;;;1.00;;
18669;SDS011;9464;44.918;9.670;2022-09-09T00:51:15;2.83;;;1.20;;
18669;SDS011;9464;44.918;9.670;2022-09-09T00:53:56;2.33;;;1.10;;
18669;SDS011;9464;44.918;9.670;2022-09-09T00:56:26;5.28;;;1.70;;
18669;SDS011;9464;44.918;9.670;2022-09-09T00:59:00;1.50;;;1.20;;
18669;SDS011;9464;44.918;9.670;2022-09-09T01:01:34;4.78;;;1.30;;
18669;SDS011;9464;44.918;9.670;2022-09-09T01:04:04;2.37;;;1.00;;
18669;SDS011;9464;44.918;9.670;2022-09-09T01:06:37;1.10;;;0.93;;
18669;SDS011;9464;44.918;9.670;2022-09-09T01:09:11;1.00;;;1.00;;
18669;SDS011;9464;44.918;9.670;2022-09-09T01:11:46;5.27;;;1.00;;
18669;SDS011;9464;44.918;9.670;2022-09-09T01:14:19;1.30;;;0.83;;
18669;SDS011;9464;44.918;9.670;2022-09-09T01:16:52;1.77;;;1.15;;
18669;SDS011;9464;44.918;9.670;2022-09-09T01:19:24;3.03;;;0.98;;
18669;SDS011;9464;44.918;9.670;2022-09-09T01:22:00;3.40;;;1.30;;
18669;SDS011;9464;44.918;9.670;2022-09-09T01:24:34;3.00;;;1.13;;
18669;SDS011;9464;44.918;9.670;2022-09-09T01:27:06;1.00;;;0.90;;
18669;SDS011;9464;44.918;9.670;2022-09-09T01:29:35;3.70;;;0.80;;
18669;SDS011;9464;44.918;9.670;2022-09-09T01:34:47;1.27;;;0.83;;
18669;SDS011;9464;44.918;9.670;2022-09-09T01:37:15;0.82;;;0.82;;
18669;SDS011;9464;44.918;9.670;2022-09-09T01:39:44;4.60;;;1.27;;
18669;SDS011;9464;44.918;9.670;2022-09-09T01:42:15;3.53;;;1.20;;
18669;SDS011;9464;44.918;9.670;2022-09-09T01:44:44;1.80;;;0.93;;
18669;SDS011;9464;44.918;9.670;2022-09-09T01:47:12;3.57;;;1.10;;
18669;SDS011;9464;44.918;9.670;2022-09-09T01:49:43;2.83;;;1.00;;
18669;SDS011;9464;44.918;9.670;2022-09-09T01:52:11;1.23;;;1.07;;
18669;SDS011;9464;44.918;9.670;2022-09-09T01:54:40;1.33;;;1.00;;
18669;SDS011;9464;44.918;9.670;2022-09-09T01:57:10;2.03;;;0.90;;
18669;SDS011;9464;44.918;9.670;2022-09-09T01:59:50;2.83;;;1.00;;
18669;SDS011;9464;44.918;9.670;2022-09-09T02:02:22;2.67;;;1.10;;
18669;SDS011;9464;44.918;9.670;2022-09-09T02:04:54;2.30;;;1.20;;
18669;SDS011;9464;44.918;9.670;2022-09-09T02:07:28;2.80;;;1.47;;
18669;SDS011;9464;44.918;9.670;2022-09-09T02:10:00;1.70;;;1.20;;
18669;SDS011;9464;44.918;9.670;2022-09-09T02:12:30;3.13;;;1.00;;
18669;SDS011;9464;44.918;9.670;2022-09-09T02:15:01;2.30;;;1.00;;
18669;SDS011;9464;44.918;9.670;2022-09-09T02:17:32;1.30;;;1.10;;
18669;SDS011;9464;44.918;9.670;2022-09-09T02:20:03;1.80;;;1.10;;
18669;SDS011;9464;44.918;9.670;2022-09-09T02:22:33;2.27;;;1.20;;
18669;SDS011;9464;44.918;9.670;2022-09-09T02:25:03;2.07;;;1.10;;
18669;SDS011;9464;44.918;9.670;2022-09-09T02:27:32;1.00;;;0.80;;
18669;SDS011;9464;44.918;9.670;2022-09-09T02:30:03;1.60;;;0.80;;
18669;SDS011;9464;44.918;9.670;2022-09-09T02:32:32;3.43;;;1.10;;
18669;SDS011;9464;44.918;9.670;2022-09-09T02:35:03;1.10;;;1.00;;
18669;SDS011;9464;44.918;9.670;2022-09-09T02:37:34;1.70;;;0.80;;
18669;SDS011;9464;44.918;9.670;2022-09-09T02:40:04;1.63;;;0.87;;
18669;SDS011;9464;44.918;9.670;2022-09-09T02:42:37;1.43;;;1.00;;
18669;SDS011;9464;44.918;9.670;2022-09-09T02:45:08;1.50;;;0.80;;
18669;SDS011;9464;44.918;9.670;2022-09-09T02:47:37;1.47;;;0.93;;
18669;SDS011;9464;44.918;9.670;2022-09-09T02:50:09;0.70;;;0.70;;
18669;SDS011;9464;44.918;9.670;2022-09-09T02:52:43;2.70;;;1.10;;
18669;SDS011;9464;44.918;9.670;2022-09-09T02:55:16;2.97;;;1.00;;
18669;SDS011;9464;44.918;9.670;2022-09-09T02:57:47;3.70;;;1.10;;
18669;SDS011;9464;44.918;9.670;2022-09-09T03:00:23;0.80;;;0.80;;
18669;SDS011;9464;44.918;9.670;2022-09-09T03:02:52;1.93;;;0.90;;
18669;SDS011;9464;44.918;9.670;2022-09-09T03:05:21;1.13;;;0.90;;
18669;SDS011;9464;44.918;9.670;2022-09-09T03:07:50;1.13;;;0.90;;
18669;SDS011;9464;44.918;9.670;2022-09-09T03:10:18;4.17;;;1.03;;
18669;SDS011;9464;44.918;9.670;2022-09-09T03:12:47;4.53;;;1.20;;
18669;SDS011;9464;44.918;9.670;2022-09-09T03:15:15;4.70;;;1.00;;
18669;SDS011;9464;44.918;9.670;2022-09-09T03:17:45;1.10;;;1.00;;
18669;SDS011;9464;44.918;9.670;2022-09-09T03:20:13;3.67;;;1.10;;
18669;SDS011;9464;44.918;9.670;2022-09-09T03:22:42;1.83;;;1.13;;
18669;SDS011;9464;44.918;9.670;2022-09-09T03:25:11;1.60;;;1.07;;
18669;SDS011;9464;44.918;9.670;2022-09-09T03:27:39;2.33;;;1.20;;
18669;SDS011;9464;44.918;9.670;2022-09-09T03:30:08;0.93;;;0.83;;
18669;SDS011;9464;44.918;9.670;2022-09-09T03:32:37;1.07;;;0.97;;
18669;SDS011;9464;44.918;9.670;2022-09-09T03:35:08;2.23;;;1.00;;
18669;SDS011;9464;44.918;9.670;2022-09-09T03:37:36;1.87;;;1.10;;
18669;SDS011;9464;44.918;9.670;2022-09-09T03:40:05;1.50;;;1.03;;
18669;SDS011;9464;44.918;9.670;2022-09-09T03:42:34;2.50;;;1.00;;
18669;SDS011;9464;44.918;9.670;2022-09-09T03:45:03;1.10;;;1.00;;
18669;SDS011;9464;44.918;9.670;2022-09-09T03:47:32;1.80;;;1.20;;
18669;SDS011;9464;44.918;9.670;2022-09-09T03:50:00;4.13;;;1.20;;
18669;SDS011;9464;44.918;9.670;2022-09-09T03:52:31;4.40;;;1.23;;
18669;SDS011;9464;44.918;9.670;2022-09-09T03:55:02;1.93;;;1.20;;
18669;SDS011;9464;44.918;9.670;2022-09-09T03:57:30;2.93;;;1.20;;
18669;SDS011;9464;44.918;9.670;2022-09-09T04:00:02;1.63;;;1.03;;
18669;SDS011;9464;44.918;9.670;2022-09-09T04:02:31;1.10;;;0.80;;
18669;SDS011;9464;44.918;9.670;2022-09-09T04:05:00;1.93;;;0.90;;
18669;SDS011;9464;44.918;9.670;2022-09-09T04:07:28;1.93;;;1.13;;
18669;SDS011;9464;44.918;9.670;2022-09-09T04:09:58;1.70;;;1.07;;
18669;SDS011;9464;44.918;9.670;2022-09-09T04:12:27;2.60;;;1.30;;
18669;SDS011;9464;44.918;9.670;2022-09-09T04:14:55;3.50;;;1.13;;
18669;SDS011;9464;44.918;9.670;2022-09-09T04:17:23;1.37;;;0.90;;
18669;SDS011;9464;44.918;9.670;2022-09-09T04:19:52;2.53;;;1.10;;
18669;SDS011;9464;44.918;9.670;2022-09-09T04:22:20;6.40;;;1.47;;
18669;SDS011;9464;44.918;9.670;2022-09-09T04:24:49;2.97;;;1.30;;
18669;SDS011;9464;44.918;9.670;2022-09-09T04:27:19;1.03;;;1.00;;
18669;SDS011;9464;44.918;9.670;2022-09-09T04:29:47;1.83;;;1.20;;
18669;SDS011;9464;44.918;9.670;2022-09-09T04:32:16;3.27;;;0.97;;
18669;SDS011;9464;44.918;9.670;2022-09-09T04:34:44;1.33;;;1.10;;
18669;SDS011;9464;44.918;9.670;2022-09-09T04:37:14;2.63;;;1.13;;
18669;SDS011;9464;44.918;9.670;2022-09-09T04:39:43;1.80;;;1.00;;
18669;SDS011;9464;44.918;9.670;2022-09-09T04:42:11;4.77;;;1.10;;
18669;SDS011;9464;44.918;9.670;2022-09-09T04:44:41;2.13;;;1.03;;
18669;SDS011;9464;44.918;9.670;2022-09-09T04:47:10;0.90;;;0.90;;
18669;SDS011;9464;44.918;9.670;2022-09-09T04:49:39;29.30;;;18.20;;
18669;SDS011;9464;44.918;9.670;2022-09-09T04:52:08;7.80;;;5.83;;
18669;SDS011;9464;44.918;9.670;2022-09-09T04:54:36;2.23;;;1.53;;
18669;SDS011;9464;44.918;9.670;2022-09-09T04:57:05;3.53;;;1.70;;
18669;SDS011;9464;44.918;9.670;2022-09-09T04:59:33;3.30;;;1.30;;
18669;SDS011;9464;44.918;9.670;2022-09-09T05:02:03;1.20;;;0.90;;
18669;SDS011;9464;44.918;9.670;2022-09-09T05:04:32;3.10;;;1.20;;
18669;SDS011;9464;44.918;9.670;2022-09-09T05:07:00;3.60;;;1.23;;
18669;SDS011;9464;44.918;9.670;2022-09-09T05:09:29;1.70;;;1.10;;
18669;SDS011;9464;44.918;9.670;2022-09-09T05:11:57;3.13;;;1.17;;
18669;SDS011;9464;44.918;9.670;2022-09-09T05:14:25;4.27;;;1.33;;
18669;SDS011;9464;44.918;9.670;2022-09-09T05:16:54;4.00;;;1.20;;
18669;SDS011;9464;44.918;9.670;2022-09-09T05:19:25;3.20;;;1.30;;
18669;SDS011;9464;44.918;9.670;2022-09-09T05:21:54;2.43;;;1.30;;
18669;SDS011;9464;44.918;9.670;2022-09-09T05:24:23;2.40;;;1.20;;
18669;SDS011;9464;44.918;9.670;2022-09-09T05:26:51;1.67;;;1.10;;
18669;SDS011;9464;44.918;9.670;2022-09-09T05:29:20;3.80;;;1.20;;
18669;SDS011;9464;44.918;9.670;2022-09-09T05:31:48;3.20;;;1.30;;
18669;SDS011;9464;44.918;9.670;2022-09-09T05:34:17;2.03;;;1.17;;
18669;SDS011;9464;44.918;9.670;2022-09-09T05:36:47;2.30;;;1.10;;
18669;SDS011;9464;44.918;9.670;2022-09-09T05:39:15;4.37;;;1.40;;
18669;SDS011;9464;44.918;9.670;2022-09-09T05:41:44;4.23;;;1.40;;
18669;SDS011;9464;44.918;9.670;2022-09-09T05:44:12;3.70;;;1.30;;
18669;SDS011;9464;44.918;9.670;2022-09-09T05:46:40;1.30;;;1.20;;
18669;SDS011;9464;44.918;9.670;2022-09-09T05:49:09;1.40;;;1.10;;
18669;SDS011;9464;44.918;9.670;2022-09-09T05:51:37;3.40;;;1.43;;
18669;SDS011;9464;44.918;9.670;2022-09-09T05:54:08;2.67;;;1.40;;
18669;SDS011;9464;44.918;9.670;2022-09-09T05:56:36;2.50;;;1.10;;
18669;SDS011;9464;44.918;9.670;2022-09-09T05:59:05;1.43;;;1.03;;
18669;SDS011;9464;44.918;9.670;2022-09-09T06:01:34;3.70;;;0.90;;
18669;SDS011;9464;44.918;9.670;2022-09-09T06:04:06;2.73;;;1.20;;
18669;SDS011;9464;44.918;9.670;2022-09-09T06:06:36;3.40;;;1.13;;
18669;SDS011;9464;44.918;9.670;2022-09-09T06:09:07;4.73;;;1.10;;
18669;SDS011;9464;44.918;9.670;2022-09-09T06:11:38;2.60;;;1.07;;
18669;SDS011;9464;44.918;9.670;2022-09-09T06:14:07;1.97;;;1.10;;
18669;SDS011;9464;44.918;9.670;2022-09-09T06:16:35;2.47;;;1.10;;
18669;SDS011;9464;44.918;9.670;2022-09-09T06:19:04;2.43;;;1.20;;
18669;SDS011;9464;44.918;9.670;2022-09-09T06:21:34;2.20;;;1.20;;
18669;SDS011;9464;44.918;9.670;2022-09-09T06:24:03;4.77;;;1.40;;
18669;SDS011;9464;44.918;9.670;2022-09-09T06:26:35;4.10;;;1.37;;
18669;SDS011;9464;44.918;9.670;2022-09-09T06:29:05;2.40;;;1.20;;
18669;SDS011;9464;44.918;9.670;2022-09-09T06:31:34;0.80;;;0.80;;
18669;SDS011;9464;44.918;9.670;2022-09-09T06:34:04;4.10;;;1.17;;
18669;SDS011;9464;44.918;9.670;2022-09-09T06:36:34;5.03;;;1.27;;
18669;SDS011;9464;44.918;9.670;2022-09-09T06:39:03;3.47;;;1.30;;
18669;SDS011;9464;44.918;9.670;2022-09-09T06:41:38;4.17;;;1.20;;
18669;SDS011;9464;44.918;9.670;2022-09-09T06:44:07;3.00;;;1.10;;
18669;SDS011;9464;44.918;9.670;2022-09-09T06:46:38;3.33;;;1.30;;
18669;SDS011;9464;44.918;9.670;2022-09-09T06:49:07;2.73;;;1.10;;
18669;SDS011;9464;44.918;9.670;2022-09-09T06:51:36;3.60;;;1.20;;
18669;SDS011;9464;44.918;9.670;2022-09-09T06:54:09;2.27;;;1.00;;
18669;SDS011;9464;44.918;9.670;2022-09-09T06:56:40;4.37;;;1.33;;
18669;SDS011;9464;44.918;9.670;2022-09-09T06:59:10;1.03;;;0.90;;
18669;SDS011;9464;44.918;9.670;2022-09-09T07:01:39;4.10;;;1.23;;
18669;SDS011;9464;44.918;9.670;2022-09-09T07:04:08;3.05;;;1.15;;
18669;SDS011;9464;44.918;9.670;2022-09-09T07:06:38;2.40;;;1.20;;
18669;SDS011;9464;44.918;9.670;2022-09-09T07:09:08;4.65;;;1.80;;
18669;SDS011;9464;44.918;9.670;2022-09-09T07:11:39;8.77;;;1.83;;
18669;SDS011;9464;44.918;9.670;2022-09-09T07:14:08;6.60;;;1.48;;
18669;SDS011;9464;44.918;9.670;2022-09-09T07:16:38;8.73;;;1.93;;
18669;SDS011;9464;44.918;9.670;2022-09-09T07:19:08;4.30;;;2.17;;
18669;SDS011;9464;44.918;9.670;2022-09-09T07:21:37;3.22;;;1.83;;
18669;SDS011;9464;44.918;9.670;2022-09-09T07:24:06;4.53;;;2.00;;
18669;SDS011;9464;44.918;9.670;2022-09-09T07:26:40;2.42;;;2.03;;
18669;SDS011;9464;44.918;9.670;2022-09-09T07:29:10;6.55;;;2.22;;
18669;SDS011;9464;44.918;9.670;2022-09-09T07:31:46;8.30;;;2.50;;
18669;SDS011;9464;44.918;9.670;2022-09-09T07:34:15;3.20;;;2.07;;
18669;SDS011;9464;44.918;9.670;2022-09-09T07:36:45;1.95;;;1.73;;
18669;SDS011;9464;44.918;9.670;2022-09-09T07:39:15;2.57;;;1.70;;
18669;SDS011;9464;44.918;9.670;2022-09-09T07:41:46;6.75;;;3.60;;
18669;SDS011;9464;44.918;9.670;2022-09-09T07:44:15;7.80;;;4.15;;
18669;SDS011;9464;44.918;9.670;2022-09-09T07:46:44;6.90;;;4.00;;
18669;SDS011;9464;44.918;9.670;2022-09-09T07:49:15;5.97;;;2.83;;
18669;SDS011;9464;44.918;9.670;2022-09-09T07:51:55;5.07;;;2.50;;
18669;SDS011;9464;44.918;9.670;2022-09-09T07:54:24;7.70;;;2.30;;
18669;SDS011;9464;44.918;9.670;2022-09-09T07:56:54;2.95;;;1.95;;
18669;SDS011;9464;44.918;9.670;2022-09-09T07:59:22;5.30;;;2.05;;
18669;SDS011;9464;44.918;9.670;2022-09-09T08:01:51;4.18;;;1.60;;
18669;SDS011;9464;44.918;9.670;2022-09-09T08:04:21;5.07;;;3.22;;
18669;SDS011;9464;44.918;9.670;2022-09-09T08:06:51;9.15;;;5.10;;
18669;SDS011;9464;44.918;9.670;2022-09-09T08:09:20;8.57;;;5.45;;
18669;SDS011;9464;44.918;9.670;2022-09-09T08:11:51;11.57;;;5.97;;
18669;SDS011;9464;44.918;9.670;2022-09-09T08:14:21;9.32;;;6.40;;
18669;SDS011;9464;44.918;9.670;2022-09-09T08:16:49;8.20;;;6.28;;
18669;SDS011;9464;44.918;9.670;2022-09-09T08:19:20;12.65;;;6.35;;
18669;SDS011;9464;44.918;9.670;2022-09-09T08:21:49;12.35;;;6.30;;
18669;SDS011;9464;44.918;9.670;2022-09-09T08:24:18;8.77;;;6.03;;
18669;SDS011;9464;44.918;9.670;2022-09-09T08:26:47;9.05;;;5.95;;
18669;SDS011;9464;44.918;9.670;2022-09-09T08:29:16;10.15;;;6.25;;
18669;SDS011;9464;44.918;9.670;2022-09-09T08:31:47;7.13;;;5.68;;
18669;SDS011;9464;44.918;9.670;2022-09-09T08:34:15;8.95;;;5.95;;
18669;SDS011;9464;44.918;9.670;2022-09-09T08:36:47;9.88;;;6.93;;
18669;SDS011;9464;44.918;9.670;2022-09-09T08:39:17;9.80;;;6.90;;
18669;SDS011;9464;44.918;9.670;2022-09-09T08:41:50;9.00;;;7.00;;
18669;SDS011;9464;44.918;9.670;2022-09-09T08:44:30;13.88;;;6.95;;
18669;SDS011;9464;44.918;9.670;2022-09-09T08:47:03;9.20;;;7.03;;
18669;SDS011;9464;44.918;9.670;2022-09-09T08:52:23;10.00;;;6.63;;
18669;SDS011;9464;44.918;9.670;2022-09-09T08:54:54;9.63;;;6.65;;
18669;SDS011;9464;44.918;9.670;2022-09-09T08:57:25;12.80;;;6.45;;
18669;SDS011;9464;44.918;9.670;2022-09-09T08:59:54;8.20;;;6.47;;
18669;SDS011;9464;44.918;9.670;2022-09-09T09:02:26;8.05;;;6.30;;
18669;SDS011;9464;44.918;9.670;2022-09-09T09:05:03;15.52;;;6.55;;
18669;SDS011;9464;44.918;9.670;2022-09-09T09:07:36;10.73;;;6.32;;
18669;SDS011;9464;44.918;9.670;2022-09-09T09:10:09;7.95;;;6.20;;
18669;SDS011;9464;44.918;9.670;2022-09-09T09:13:00;11.35;;;5.93;;
18669;SDS011;9464;44.918;9.670;2022-09-09T09:15:30;12.63;;;6.05;;
18669;SDS011;9464;44.918;9.670;2022-09-09T09:18:04;9.55;;;5.30;;
18669;SDS011;9464;44.918;9.670;2022-09-09T09:20:34;8.90;;;6.05;;
18669;SDS011;9464;44.918;9.670;2022-09-09T09:23:05;7.78;;;5.93;;
18669;SDS011;9464;44.918;9.670;2022-09-09T09:25:35;10.50;;;5.57;;
18669;SDS011;9464;44.918;9.670;2022-09-09T09:28:10;9.52;;;6.45;;
18669;SDS011;9464;44.918;9.670;2022-09-09T09:30:44;11.20;;;5.93;;
18669;SDS011;9464;44.918;9.670;2022-09-09T09:33:17;9.85;;;5.93;;
18669;SDS011;9464;44.918;9.670;2022-09-09T09:35:48;13.15;;;6.72;;
18669;SDS011;9464;44.918;9.670;2022-09-09T09:38:20;10.23;;;6.13;;
18669;SDS011;9464;44.918;9.670;2022-09-09T09:41:09;10.45;;;7.38;;
18669;SDS011;9464;44.918;9.670;2022-09-09T09:43:40;11.73;;;6.85;;
18669;SDS011;9464;44.918;9.670;2022-09-09T09:46:18;11.90;;;6.03;;
18669;SDS011;9464;44.918;9.670;2022-09-09T09:48:57;8.32;;;6.63;;
18669;SDS011;9464;44.918;9.670;2022-09-09T09:51:26;11.15;;;6.07;;
18669;SDS011;9464;44.918;9.670;2022-09-09T09:54:03;12.63;;;6.13;;
18669;SDS011;9464;44.918;9.670;2022-09-09T09:56:32;10.63;;;7.20;;
18669;SDS011;9464;44.918;9.670;2022-09-09T09:59:01;10.95;;;7.32;;
18669;SDS011;9464;44.918;9.670;2022-09-09T10:01:48;12.27;;;6.80;;
18669;SDS011;9464;44.918;9.670;2022-09-09T10:04:19;10.23;;;7.47;;
18669;SDS011;9464;44.918;9.670;2022-09-09T10:06:50;10.48;;;6.72;;
18669;SDS011;9464;44.918;9.670;2022-09-09T10:09:20;15.20;;;9.10;;
18669;SDS011;9464;44.918;9.670;2022-09-09T10:11:51;15.73;;;9.40;;
18669;SDS011;9464;44.918;9.670;2022-09-09T10:14:25;15.00;;;8.38;;
18669;SDS011;9464;44.918;9.670;2022-09-09T10:17:02;11.40;;;7.40;;
18669;SDS011;9464;44.918;9.670;2022-09-09T10:19:35;14.68;;;8.02;;
18669;SDS011;9464;44.918;9.670;2022-09-09T10:22:06;11.77;;;7.28;;
18669;SDS011;9464;44.918;9.670;2022-09-09T10:24:44;12.02;;;6.65;;
18669;SDS011;9464;44.918;9.670;2022-09-09T10:27:19;12.95;;;7.35;;
18669;SDS011;9464;44.918;9.670;2022-09-09T10:29:55;10.40;;;6.53;;
18669;SDS011;9464;44.918;9.670;2022-09-09T10:32:33;7.60;;;5.18;;
18669;SDS011;9464;44.918;9.670;2022-09-09T10:35:10;14.30;;;7.13;;
18669;SDS011;9464;44.918;9.670;2022-09-09T10:37:48;9.20;;;5.85;;
18669;SDS011;9464;44.918;9.670;2022-09-09T10:40:23;7.80;;;5.90;;
18669;SDS011;9464;44.918;9.670;2022-09-09T10:42:58;7.25;;;5.38;;
18669;SDS011;9464;44.918;9.670;2022-09-09T10:45:29;9.35;;;5.45;;
18669;SDS011;9464;44.918;9.670;2022-09-09T10:48:04;9.00;;;5.32;;
18669;SDS011;9464;44.918;9.670;2022-09-09T10:53:36;11.80;;;5.53;;
18669;SDS011;9464;44.918;9.670;2022-09-09T10:56:09;12.27;;;6.43;;
18669;SDS011;9464;44.918;9.670;2022-09-09T10:58:40;13.45;;;6.63;;
18669;SDS011;9464;44.918;9.670;2022-09-09T11:01:12;11.07;;;6.57;;
18669;SDS011;9464;44.918;9.670;2022-09-09T11:03:43;10.38;;;6.32;;
18669;SDS011;9464;44.918;9.670;2022-09-09T11:06:14;9.73;;;5.90;;
18669;SDS011;9464;44.918;9.670;2022-09-09T11:08:45;13.23;;;7.10;;
18669;SDS011;9464;44.918;9.670;2022-09-09T11:11:22;13.43;;;7.30;;
18669;SDS011;9464;44.918;9.670;2022-09-09T11:13:53;8.40;;;5.68;;
18669;SDS011;9464;44.918;9.670;2022-09-09T11:16:26;10.75;;;6.20;;
18669;SDS011;9464;44.918;9.670;2022-09-09T11:18:58;11.13;;;6.97;;
18669;SDS011;9464;44.918;9.670;2022-09-09T11:21:30;10.38;;;7.10;;
18669;SDS011;9464;44.918;9.670;2022-09-09T11:24:01;8.27;;;5.88;;
18669;SDS011;9464;44.918;9.670;2022-09-09T11:26:32;10.27;;;6.20;;
18669;SDS011;9464;44.918;9.670;2022-09-09T11:29:06;10.13;;;6.50;;
18669;SDS011;9464;44.918;9.670;2022-09-09T11:31:43;11.02;;;5.80;;
18669;SDS011;9464;44.918;9.670;2022-09-09T11:37:04;10.63;;;5.65;;
18669;SDS011;9464;44.918;9.670;2022-09-09T11:39:53;9.93;;;5.75;;
18669;SDS011;9464;44.918;9.670;2022-09-09T11:42:25;7.35;;;5.28;;
18669;SDS011;9464;44.918;9.670;2022-09-09T11:44:53;9.60;;;5.50;;
18669;SDS011;9464;44.918;9.670;2022-09-09T11:47:23;10.45;;;4.82;;
18669;SDS011;9464;44.918;9.670;2022-09-09T11:50:06;10.65;;;5.13;;
18669;SDS011;9464;44.918;9.670;2022-09-09T11:52:39;11.52;;;6.35;;
18669;SDS011;9464;44.918;9.670;2022-09-09T11:55:10;9.43;;;5.38;;
18669;SDS011;9464;44.918;9.670;2022-09-09T11:57:39;11.25;;;6.22;;
18669;SDS011;9464;44.918;9.670;2022-09-09T12:02:58;8.38;;;4.75;;
18669;SDS011;9464;44.918;9.670;2022-09-09T12:05:34;10.43;;;5.85;;
18669;SDS011;9464;44.918;9.670;2022-09-09T12:08:03;11.80;;;6.18;;
18669;SDS011;9464;44.918;9.670;2022-09-09T12:10:34;9.43;;;6.07;;
18669;SDS011;9464;44.918;9.670;2022-09-09T12:13:15;7.47;;;5.15;;
18669;SDS011;9464;44.918;9.670;2022-09-09T12:15:47;7.57;;;5.50;;
18669;SDS011;9464;44.918;9.670;2022-09-09T12:18:20;9.40;;;5.57;;
18669;SDS011;9464;44.918;9.670;2022-09-09T12:20:52;7.70;;;5.38;;
18669;SDS011;9464;44.918;9.670;2022-09-09T12:23:26;11.07;;;5.25;;
18669;SDS011;9464;44.918;9.670;2022-09-09T12:26:00;8.65;;;5.50;;
18669;SDS011;9464;44.918;9.670;2022-09-09T12:28:38;10.63;;;6.43;;
18669;SDS011;9464;44.918;9.670;2022-09-09T12:31:10;10.68;;;5.72;;
18669;SDS011;9464;44.918;9.670;2022-09-09T12:33:44;6.97;;;5.32;;
18669;SDS011;9464;44.918;9.670;2022-09-09T12:36:14;9.00;;;5.15;;
18669;SDS011;9464;44.918;9.670;2022-09-09T12:38:44;8.40;;;5.55;;
18669;SDS011;9464;44.918;9.670;2022-09-09T12:41:21;6.72;;;5.10;;
18669;SDS011;9464;44.918;9.670;2022-09-09T12:43:50;7.15;;;4.95;;
18669;SDS011;9464;44.918;9.670;2022-09-09T12:46:21;7.95;;;4.80;;
18669;SDS011;9464;44.918;9.670;2022-09-09T12:48:52;10.18;;;4.97;;
18669;SDS011;9464;44.918;9.670;2022-09-09T12:51:23;11.07;;;5.18;;
18669;SDS011;9464;44.918;9.670;2022-09-09T12:53:52;7.22;;;5.20;;
18669;SDS011;9464;44.918;9.670;2022-09-09T12:56:23;8.02;;;4.90;;
18669;SDS011;9464;44.918;9.670;2022-09-09T12:58:54;7.53;;;4.70;;
18669;SDS011;9464;44.918;9.670;2022-09-09T13:01:24;9.98;;;5.57;;
18669;SDS011;9464;44.918;9.670;2022-09-09T13:03:53;11.60;;;5.45;;
18669;SDS011;9464;44.918;9.670;2022-09-09T13:06:22;8.40;;;5.00;;
18669;SDS011;9464;44.918;9.670;2022-09-09T13:08:54;8.43;;;5.20;;
18669;SDS011;9464;44.918;9.670;2022-09-09T13:11:27;14.27;;;5.68;;
18669;SDS011;9464;44.918;9.670;2022-09-09T13:13:57;12.32;;;5.50;;
18669;SDS011;9464;44.918;9.670;2022-09-09T13:16:27;12.65;;;5.65;;
18669;SDS011;9464;44.918;9.670;2022-09-09T13:18:59;8.25;;;5.45;;
18669;SDS011;9464;44.918;9.670;2022-09-09T13:21:31;11.40;;;5.57;;
18669;SDS011;9464;44.918;9.670;2022-09-09T13:24:00;7.68;;;5.30;;
18669;SDS011;9464;44.918;9.670;2022-09-09T13:26:32;10.40;;;7.35;;
18669;SDS011;9464;44.918;9.670;2022-09-09T13:29:15;9.63;;;6.30;;
18669;SDS011;9464;44.918;9.670;2022-09-09T13:31:47;32.92;;;20.77;;
18669;SDS011;9464;44.918;9.670;2022-09-09T13:34:26;17.80;;;10.38;;
18669;SDS011;9464;44.918;9.670;2022-09-09T13:36:55;9.45;;;5.75;;
18669;SDS011;9464;44.918;9.670;2022-09-09T13:39:28;7.40;;;5.38;;
18669;SDS011;9464;44.918;9.670;2022-09-09T13:41:58;9.70;;;5.82;;
18669;SDS011;9464;44.918;9.670;2022-09-09T13:44:30;11.15;;;6.18;;
18669;SDS011;9464;44.918;9.670;2022-09-09T13:47:00;7.13;;;5.00;;
18669;SDS011;9464;44.918;9.670;2022-09-09T13:49:35;8.05;;;4.13;;
18669;SDS011;9464;44.918;9.670;2022-09-09T13:52:04;7.47;;;5.03;;
18669;SDS011;9464;44.918;9.670;2022-09-09T13:54:33;7.68;;;4.70;;
18669;SDS011;9464;44.918;9.670;2022-09-09T13:57:04;6.07;;;3.97;;
18669;SDS011;9464;44.918;9.670;2022-09-09T13:59:32;9.95;;;4.28;;
18669;SDS011;9464;44.918;9.670;2022-09-09T14:02:20;8.57;;;4.35;;
18669;SDS011;9464;44.918;9.670;2022-09-09T14:04:49;7.15;;;3.78;;
18669;SDS011;9464;44.918;9.670;2022-09-09T14:07:21;5.15;;;3.25;;
18669;SDS011;9464;44.918;9.670;2022-09-09T14:09:51;5.97;;;3.40;;
18669;SDS011;9464;44.918;9.670;2022-09-09T14:12:21;7.43;;;2.78;;
18669;SDS011;9464;44.918;9.670;2022-09-09T14:14:49;3.92;;;2.45;;
18669;SDS011;9464;44.918;9.670;2022-09-09T14:17:18;3.97;;;2.47;;
18669;SDS011;9464;44.918;9.670;2022-09-09T14:19:48;4.38;;;2.97;;
18669;SDS011;9464;44.918;9.670;2022-09-09T14:22:17;6.97;;;3.47;;
18669;SDS011;9464;44.918;9.670;2022-09-09T14:24:45;6.97;;;3.08;;
18669;SDS011;9464;44.918;9.670;2022-09-09T14:27:13;4.22;;;2.85;;
18669;SDS011;9464;44.918;9.670;2022-09-09T14:29:43;6.45;;;2.60;;
18669;SDS011;9464;44.918;9.670;2022-09-09T14:32:12;5.57;;;3.08;;
18669;SDS011;9464;44.918;9.670;2022-09-09T14:34:40;7.45;;;2.85;;
18669;SDS011;9464;44.918;9.670;2022-09-09T14:37:09;5.82;;;3.05;;
18669;SDS011;9464;44.918;9.670;2022-09-09T14:39:37;7.30;;;3.20;;
18669;SDS011;9464;44.918;9.670;2022-09-09T14:42:06;4.22;;;3.35;;
18669;SDS011;9464;44.918;9.670;2022-09-09T14:44:37;5.93;;;3.50;;
18669;SDS011;9464;44.918;9.670;2022-09-09T14:47:07;8.80;;;2.92;;
18669;SDS011;9464;44.918;9.670;2022-09-09T14:49:36;6.05;;;3.00;;
18669;SDS011;9464;44.918;9.670;2022-09-09T14:52:09;4.18;;;2.85;;
18669;SDS011;9464;44.918;9.670;2022-09-09T14:54:37;6.82;;;2.85;;
18669;SDS011;9464;44.918;9.670;2022-09-09T14:57:06;6.15;;;3.63;;
18669;SDS011;9464;44.918;9.670;2022-09-09T14:59:34;8.18;;;3.42;;
18669;SDS011;9464;44.918;9.670;2022-09-09T15:02:03;8.13;;;3.35;;
18669;SDS011;9464;44.918;9.670;2022-09-09T15:04:33;5.15;;;3.17;;
18669;SDS011;9464;44.918;9.670;2022-09-09T15:07:01;8.30;;;3.00;;
18669;SDS011;9464;44.918;9.670;2022-09-09T15:09:30;8.27;;;3.72;;
18669;SDS011;9464;44.918;9.670;2022-09-09T15:11:58;8.30;;;3.22;;
18669;SDS011;9464;44.918;9.670;2022-09-09T15:14:28;6.72;;;2.90;;
18669;SDS011;9464;44.918;9.670;2022-09-09T15:16:57;6.65;;;2.80;;
18669;SDS011;9464;44.918;9.670;2022-09-09T15:19:25;8.40;;;3.03;;
18669;SDS011;9464;44.918;9.670;2022-09-09T15:21:55;7.95;;;2.45;;
18669;SDS011;9464;44.918;9.670;2022-09-09T15:24:23;5.90;;;2.95;;
18669;SDS011;9464;44.918;9.670;2022-09-09T15:26:52;7.43;;;2.97;;
18669;SDS011;9464;44.918;9.670;2022-09-09T15:29:21;4.05;;;2.45;;
18669;SDS011;9464;44.918;9.670;2022-09-09T15:31:49;5.78;;;2.70;;
18669;SDS011;9464;44.918;9.670;2022-09-09T15:34:18;3.05;;;2.28;;
18669;SDS011;9464;44.918;9.670;2022-09-09T15:36:47;6.22;;;2.35;;